sensor_id;sensor_type;location;lat;lon;timestamp;P1;durP1;ratioP1;P2;durP2;ratioP2
26325;SDS011;14032;52.510;7.342;2024-02-28T00:01:20;107.88;;;37.60;;
26325;SDS011;14032;52.510;7.342;2024-02-28T00:03:45;106.65;;;37.67;;
26325;SDS011;14032;52.510;7.342;2024-02-28T00:06:12;113.47;;;37.90;;
26325;SDS011;14032;52.510;7.342;2024-02-28T00:08:37;107.97;;;36.60;;
26325;SDS011;14032;52.510;7.342;2024-02-28T00:11:03;111.95;;;39.63;;
26325;SDS011;14032;52.510;7.342;2024-02-28T00:13:28;117.70;;;38.40;;
26325;SDS011;14032;52.510;7.342;2024-02-28T00:15:54;115.70;;;38.10;;
26325;SDS011;14032;52.510;7.342;2024-02-28T00:18:20;115.47;;;37.88;;
26325;SDS011;14032;52.510;7.342;2024-02-28T00:20:45;110.85;;;38.55;;
26325;SDS011;14032;52.510;7.342;2024-02-28T00:23:11;123.30;;;38.28;;
26325;SDS011;14032;52.510;7.342;2024-02-28T00:25:36;113.32;;;39.08;;
26325;SDS011;14032;52.510;7.342;2024-02-28T00:28:02;103.90;;;37.45;;
26325;SDS011;14032;52.510;7.342;2024-02-28T00:30:28;109.00;;;38.25;;
26325;SDS011;14032;52.510;7.342;2024-02-28T00:32:54;109.93;;;38.40;;
26325;SDS011;14032;52.510;7.342;2024-02-28T00:35:20;103.50;;;35.50;;
26325;SDS011;14032;52.510;7.342;2024-02-28T00:37:45;113.65;;;36.75;;
26325;SDS011;14032;52.510;7.342;2024-02-28T00:40:11;98.30;;;33.83;;
26325;SDS011;14032;52.510;7.342;2024-02-28T00:42:37;88.63;;;32.38;;
26325;SDS011;14032;52.510;7.342;2024-02-28T00:45:03;93.40;;;32.72;;
26325;SDS011;14032;52.510;7.342;2024-02-28T00:47:29;98.63;;;31.15;;
26325;SDS011;14032;52.510;7.342;2024-02-28T00:49:55;87.68;;;29.27;;
26325;SDS011;14032;52.510;7.342;2024-02-28T00:52:20;73.65;;;29.35;;
26325;SDS011;14032;52.510;7.342;2024-02-28T00:54:46;68.35;;;28.35;;
26325;SDS011;14032;52.510;7.342;2024-02-28T00:57:12;69.25;;;26.50;;
26325;SDS011;14032;52.510;7.342;2024-02-28T00:59:37;73.72;;;27.23;;
26325;SDS011;14032;52.510;7.342;2024-02-28T01:02:03;61.90;;;26.13;;
26325;SDS011;14032;52.510;7.342;2024-02-28T01:04:29;97.43;;;27.25;;
26325;SDS011;14032;52.510;7.342;2024-02-28T01:06:54;94.13;;;27.65;;
26325;SDS011;14032;52.510;7.342;2024-02-28T01:09:21;73.70;;;27.80;;
26325;SDS011;14032;52.510;7.342;2024-02-28T01:11:47;91.95;;;26.50;;
26325;SDS011;14032;52.510;7.342;2024-02-28T01:14:13;64.25;;;25.55;;
26325;SDS011;14032;52.510;7.342;2024-02-28T01:16:40;80.65;;;26.95;;
26325;SDS011;14032;52.510;7.342;2024-02-28T01:19:05;77.78;;;28.35;;
26325;SDS011;14032;52.510;7.342;2024-02-28T01:21:31;77.22;;;26.58;;
26325;SDS011;14032;52.510;7.342;2024-02-28T01:23:57;69.28;;;28.17;;
26325;SDS011;14032;52.510;7.342;2024-02-28T01:26:23;63.00;;;26.67;;
26325;SDS011;14032;52.510;7.342;2024-02-28T01:28:49;66.05;;;27.90;;
26325;SDS011;14032;52.510;7.342;2024-02-28T01:31:15;74.45;;;27.58;;
26325;SDS011;14032;52.510;7.342;2024-02-28T01:33:41;73.25;;;28.60;;
26325;SDS011;14032;52.510;7.342;2024-02-28T01:36:06;72.00;;;28.05;;
26325;SDS011;14032;52.510;7.342;2024-02-28T01:38:32;78.93;;;31.42;;
26325;SDS011;14032;52.510;7.342;2024-02-28T01:40:58;89.82;;;29.48;;
26325;SDS011;14032;52.510;7.342;2024-02-28T01:43:24;86.95;;;30.48;;
26325;SDS011;14032;52.510;7.342;2024-02-28T01:45:50;85.22;;;30.55;;
26325;SDS011;14032;52.510;7.342;2024-02-28T01:48:17;84.07;;;30.65;;
26325;SDS011;14032;52.510;7.342;2024-02-28T01:50:43;73.72;;;29.48;;
26325;SDS011;14032;52.510;7.342;2024-02-28T01:53:09;75.22;;;29.10;;
26325;SDS011;14032;52.510;7.342;2024-02-28T01:55:36;80.38;;;31.10;;
26325;SDS011;14032;52.510;7.342;2024-02-28T01:58:03;93.90;;;30.58;;
26325;SDS011;14032;52.510;7.342;2024-02-28T02:00:35;82.35;;;31.60;;
26325;SDS011;14032;52.510;7.342;2024-02-28T02:03:02;81.05;;;30.90;;
26325;SDS011;14032;52.510;7.342;2024-02-28T02:05:29;88.07;;;29.10;;
26325;SDS011;14032;52.510;7.342;2024-02-28T02:07:56;74.72;;;29.90;;
26325;SDS011;14032;52.510;7.342;2024-02-28T02:10:23;79.82;;;29.70;;
26325;SDS011;14032;52.510;7.342;2024-02-28T02:12:49;71.85;;;28.60;;
26325;SDS011;14032;52.510;7.342;2024-02-28T02:15:15;70.90;;;27.52;;
26325;SDS011;14032;52.510;7.342;2024-02-28T02:17:40;69.70;;;28.85;;
26325;SDS011;14032;52.510;7.342;2024-02-28T02:20:06;80.55;;;29.23;;
26325;SDS011;14032;52.510;7.342;2024-02-28T02:22:36;75.72;;;27.80;;
26325;SDS011;14032;52.510;7.342;2024-02-28T02:25:05;75.35;;;29.05;;
26325;SDS011;14032;52.510;7.342;2024-02-28T02:27:31;74.55;;;27.67;;
26325;SDS011;14032;52.510;7.342;2024-02-28T02:29:57;84.82;;;28.08;;
26325;SDS011;14032;52.510;7.342;2024-02-28T02:32:23;83.13;;;29.50;;
26325;SDS011;14032;52.510;7.342;2024-02-28T02:34:48;85.97;;;29.65;;
26325;SDS011;14032;52.510;7.342;2024-02-28T02:37:14;65.93;;;28.95;;
26325;SDS011;14032;52.510;7.342;2024-02-28T02:39:41;81.10;;;29.30;;
26325;SDS011;14032;52.510;7.342;2024-02-28T02:42:06;93.55;;;29.13;;
26325;SDS011;14032;52.510;7.342;2024-02-28T02:44:33;72.38;;;28.33;;
26325;SDS011;14032;52.510;7.342;2024-02-28T02:46:59;70.32;;;27.98;;
26325;SDS011;14032;52.510;7.342;2024-02-28T02:49:24;71.75;;;29.13;;
26325;SDS011;14032;52.510;7.342;2024-02-28T02:51:50;70.35;;;29.42;;
26325;SDS011;14032;52.510;7.342;2024-02-28T02:54:16;73.65;;;29.60;;
26325;SDS011;14032;52.510;7.342;2024-02-28T02:56:42;75.85;;;31.13;;
26325;SDS011;14032;52.510;7.342;2024-02-28T02:59:08;81.50;;;30.10;;
26325;SDS011;14032;52.510;7.342;2024-02-28T03:01:40;77.78;;;30.13;;
26325;SDS011;14032;52.510;7.342;2024-02-28T03:04:05;68.82;;;29.75;;
26325;SDS011;14032;52.510;7.342;2024-02-28T03:06:31;87.68;;;31.92;;
26325;SDS011;14032;52.510;7.342;2024-02-28T03:08:57;76.68;;;29.55;;
26325;SDS011;14032;52.510;7.342;2024-02-28T03:11:23;81.90;;;30.70;;
26325;SDS011;14032;52.510;7.342;2024-02-28T03:13:49;82.82;;;31.58;;
26325;SDS011;14032;52.510;7.342;2024-02-28T03:16:15;81.80;;;31.27;;
26325;SDS011;14032;52.510;7.342;2024-02-28T03:18:40;108.20;;;32.20;;
26325;SDS011;14032;52.510;7.342;2024-02-28T03:21:06;88.60;;;30.98;;
26325;SDS011;14032;52.510;7.342;2024-02-28T03:23:32;92.88;;;32.72;;
26325;SDS011;14032;52.510;7.342;2024-02-28T03:25:58;92.90;;;32.15;;
26325;SDS011;14032;52.510;7.342;2024-02-28T03:28:25;81.35;;;31.65;;
26325;SDS011;14032;52.510;7.342;2024-02-28T03:30:50;83.30;;;31.88;;
26325;SDS011;14032;52.510;7.342;2024-02-28T03:33:16;83.07;;;32.75;;
26325;SDS011;14032;52.510;7.342;2024-02-28T03:35:42;78.40;;;31.17;;
26325;SDS011;14032;52.510;7.342;2024-02-28T03:38:07;90.22;;;32.05;;
26325;SDS011;14032;52.510;7.342;2024-02-28T03:40:33;76.55;;;30.75;;
26325;SDS011;14032;52.510;7.342;2024-02-28T03:42:59;89.05;;;33.35;;
26325;SDS011;14032;52.510;7.342;2024-02-28T03:45:27;99.88;;;33.03;;
26325;SDS011;14032;52.510;7.342;2024-02-28T03:47:53;77.13;;;30.15;;
26325;SDS011;14032;52.510;7.342;2024-02-28T03:50:19;97.93;;;34.20;;
26325;SDS011;14032;52.510;7.342;2024-02-28T03:52:44;77.90;;;31.05;;
26325;SDS011;14032;52.510;7.342;2024-02-28T03:55:10;81.57;;;32.95;;
26325;SDS011;14032;52.510;7.342;2024-02-28T03:57:35;82.82;;;29.60;;
26325;SDS011;14032;52.510;7.342;2024-02-28T04:00:02;102.68;;;34.80;;
26325;SDS011;14032;52.510;7.342;2024-02-28T04:02:27;77.40;;;31.00;;
26325;SDS011;14032;52.510;7.342;2024-02-28T04:04:53;73.25;;;30.98;;
26325;SDS011;14032;52.510;7.342;2024-02-28T04:07:19;84.57;;;32.13;;
26325;SDS011;14032;52.510;7.342;2024-02-28T04:09:44;84.82;;;31.30;;
26325;SDS011;14032;52.510;7.342;2024-02-28T04:12:10;80.45;;;32.45;;
26325;SDS011;14032;52.510;7.342;2024-02-28T04:14:39;95.88;;;33.08;;
26325;SDS011;14032;52.510;7.342;2024-02-28T04:17:05;72.55;;;31.23;;
26325;SDS011;14032;52.510;7.342;2024-02-28T04:19:34;78.32;;;32.70;;
26325;SDS011;14032;52.510;7.342;2024-02-28T04:22:04;77.50;;;31.23;;
26325;SDS011;14032;52.510;7.342;2024-02-28T04:24:29;86.35;;;31.50;;
26325;SDS011;14032;52.510;7.342;2024-02-28T04:26:55;77.22;;;31.52;;
26325;SDS011;14032;52.510;7.342;2024-02-28T04:29:29;85.78;;;32.60;;
26325;SDS011;14032;52.510;7.342;2024-02-28T04:31:55;78.55;;;32.28;;
26325;SDS011;14032;52.510;7.342;2024-02-28T04:34:20;72.40;;;31.80;;
26325;SDS011;14032;52.510;7.342;2024-02-28T04:36:46;83.97;;;31.83;;
26325;SDS011;14032;52.510;7.342;2024-02-28T04:39:12;69.97;;;30.80;;
26325;SDS011;14032;52.510;7.342;2024-02-28T04:41:37;85.50;;;33.10;;
26325;SDS011;14032;52.510;7.342;2024-02-28T04:44:03;79.00;;;33.10;;
26325;SDS011;14032;52.510;7.342;2024-02-28T04:46:29;88.25;;;32.90;;
26325;SDS011;14032;52.510;7.342;2024-02-28T04:48:54;80.68;;;31.33;;
26325;SDS011;14032;52.510;7.342;2024-02-28T04:51:20;73.03;;;31.20;;
26325;SDS011;14032;52.510;7.342;2024-02-28T04:53:45;79.00;;;31.90;;
26325;SDS011;14032;52.510;7.342;2024-02-28T04:56:11;72.38;;;31.38;;
26325;SDS011;14032;52.510;7.342;2024-02-28T04:58:37;69.30;;;30.33;;
26325;SDS011;14032;52.510;7.342;2024-02-28T05:01:02;78.10;;;32.58;;
26325;SDS011;14032;52.510;7.342;2024-02-28T05:03:28;73.60;;;32.50;;
26325;SDS011;14032;52.510;7.342;2024-02-28T05:05:54;78.22;;;32.55;;
26325;SDS011;14032;52.510;7.342;2024-02-28T05:08:20;78.13;;;32.05;;
26325;SDS011;14032;52.510;7.342;2024-02-28T05:10:46;75.70;;;31.52;;
26325;SDS011;14032;52.510;7.342;2024-02-28T05:13:12;85.65;;;31.92;;
26325;SDS011;14032;52.510;7.342;2024-02-28T05:15:37;78.45;;;31.13;;
26325;SDS011;14032;52.510;7.342;2024-02-28T05:18:04;84.28;;;34.70;;
26325;SDS011;14032;52.510;7.342;2024-02-28T05:20:30;85.32;;;33.67;;
26325;SDS011;14032;52.510;7.342;2024-02-28T05:22:55;82.65;;;32.75;;
26325;SDS011;14032;52.510;7.342;2024-02-28T05:25:21;84.90;;;33.67;;
26325;SDS011;14032;52.510;7.342;2024-02-28T05:27:47;86.18;;;34.67;;
26325;SDS011;14032;52.510;7.342;2024-02-28T05:30:13;81.57;;;32.63;;
26325;SDS011;14032;52.510;7.342;2024-02-28T05:32:39;78.70;;;31.42;;
26325;SDS011;14032;52.510;7.342;2024-02-28T05:35:05;73.00;;;30.00;;
26325;SDS011;14032;52.510;7.342;2024-02-28T05:37:31;84.55;;;31.52;;
26325;SDS011;14032;52.510;7.342;2024-02-28T05:39:56;78.45;;;32.90;;
26325;SDS011;14032;52.510;7.342;2024-02-28T05:42:22;85.78;;;33.05;;
26325;SDS011;14032;52.510;7.342;2024-02-28T05:44:49;79.43;;;32.95;;
26325;SDS011;14032;52.510;7.342;2024-02-28T05:47:15;76.97;;;32.05;;
26325;SDS011;14032;52.510;7.342;2024-02-28T05:49:41;84.93;;;32.80;;
26325;SDS011;14032;52.510;7.342;2024-02-28T05:52:06;84.20;;;33.75;;
26325;SDS011;14032;52.510;7.342;2024-02-28T05:54:34;90.13;;;33.70;;
26325;SDS011;14032;52.510;7.342;2024-02-28T05:57:00;87.13;;;32.35;;
26325;SDS011;14032;52.510;7.342;2024-02-28T05:59:25;86.80;;;34.50;;
26325;SDS011;14032;52.510;7.342;2024-02-28T06:01:51;83.50;;;33.42;;
26325;SDS011;14032;52.510;7.342;2024-02-28T06:04:17;89.32;;;35.45;;
26325;SDS011;14032;52.510;7.342;2024-02-28T06:06:42;87.47;;;34.00;;
26325;SDS011;14032;52.510;7.342;2024-02-28T06:09:09;92.40;;;35.50;;
26325;SDS011;14032;52.510;7.342;2024-02-28T06:11:35;91.18;;;35.70;;
26325;SDS011;14032;52.510;7.342;2024-02-28T06:14:01;94.05;;;36.13;;
26325;SDS011;14032;52.510;7.342;2024-02-28T06:16:28;95.32;;;35.33;;
26325;SDS011;14032;52.510;7.342;2024-02-28T06:18:55;101.03;;;36.97;;
26325;SDS011;14032;52.510;7.342;2024-02-28T06:21:23;103.43;;;38.40;;
26325;SDS011;14032;52.510;7.342;2024-02-28T06:23:50;104.15;;;39.72;;
26325;SDS011;14032;52.510;7.342;2024-02-28T06:26:17;106.07;;;39.88;;
26325;SDS011;14032;52.510;7.342;2024-02-28T06:28:43;100.57;;;37.42;;
26325;SDS011;14032;52.510;7.342;2024-02-28T06:31:14;99.18;;;37.80;;
26325;SDS011;14032;52.510;7.342;2024-02-28T06:33:41;95.38;;;36.05;;
26325;SDS011;14032;52.510;7.342;2024-02-28T06:36:07;94.93;;;36.90;;
26325;SDS011;14032;52.510;7.342;2024-02-28T06:38:33;96.35;;;36.75;;
26325;SDS011;14032;52.510;7.342;2024-02-28T06:41:03;89.65;;;34.35;;
26325;SDS011;14032;52.510;7.342;2024-02-28T06:43:29;92.47;;;33.50;;
26325;SDS011;14032;52.510;7.342;2024-02-28T06:45:57;93.20;;;35.88;;
26325;SDS011;14032;52.510;7.342;2024-02-28T06:48:23;94.88;;;35.75;;
26325;SDS011;14032;52.510;7.342;2024-02-28T06:50:55;87.80;;;35.25;;
26325;SDS011;14032;52.510;7.342;2024-02-28T06:53:21;92.18;;;34.47;;
26325;SDS011;14032;52.510;7.342;2024-02-28T06:55:53;93.50;;;35.13;;
26325;SDS011;14032;52.510;7.342;2024-02-28T06:58:18;93.25;;;35.72;;
26325;SDS011;14032;52.510;7.342;2024-02-28T07:00:44;92.40;;;35.45;;
26325;SDS011;14032;52.510;7.342;2024-02-28T07:03:15;107.38;;;40.70;;
26325;SDS011;14032;52.510;7.342;2024-02-28T07:05:41;96.53;;;38.33;;
26325;SDS011;14032;52.510;7.342;2024-02-28T07:08:07;91.68;;;36.05;;
26325;SDS011;14032;52.510;7.342;2024-02-28T07:10:35;95.93;;;36.45;;
26325;SDS011;14032;52.510;7.342;2024-02-28T07:13:01;93.82;;;35.78;;
26325;SDS011;14032;52.510;7.342;2024-02-28T07:15:28;94.47;;;35.72;;
26325;SDS011;14032;52.510;7.342;2024-02-28T07:17:53;91.20;;;34.30;;
26325;SDS011;14032;52.510;7.342;2024-02-28T07:20:19;103.93;;;35.88;;
26325;SDS011;14032;52.510;7.342;2024-02-28T07:22:45;84.35;;;36.13;;
26325;SDS011;14032;52.510;7.342;2024-02-28T07:25:11;92.95;;;34.35;;
26325;SDS011;14032;52.510;7.342;2024-02-28T07:27:37;85.97;;;34.95;;
26325;SDS011;14032;52.510;7.342;2024-02-28T07:30:02;88.85;;;34.40;;
26325;SDS011;14032;52.510;7.342;2024-02-28T07:32:28;81.50;;;33.20;;
26325;SDS011;14032;52.510;7.342;2024-02-28T07:34:59;87.32;;;33.60;;
26325;SDS011;14032;52.510;7.342;2024-02-28T07:37:25;93.40;;;37.78;;
26325;SDS011;14032;52.510;7.342;2024-02-28T07:39:51;90.28;;;33.22;;
26325;SDS011;14032;52.510;7.342;2024-02-28T07:42:16;84.93;;;33.97;;
26325;SDS011;14032;52.510;7.342;2024-02-28T07:44:42;86.55;;;33.78;;
26325;SDS011;14032;52.510;7.342;2024-02-28T07:47:08;98.22;;;35.17;;
26325;SDS011;14032;52.510;7.342;2024-02-28T07:49:34;87.95;;;34.90;;
26325;SDS011;14032;52.510;7.342;2024-02-28T07:51:59;93.15;;;36.50;;
26325;SDS011;14032;52.510;7.342;2024-02-28T07:54:25;89.35;;;34.78;;
26325;SDS011;14032;52.510;7.342;2024-02-28T07:56:52;87.35;;;34.60;;
26325;SDS011;14032;52.510;7.342;2024-02-28T07:59:20;77.30;;;32.70;;
26325;SDS011;14032;52.510;7.342;2024-02-28T08:01:47;89.30;;;33.65;;
26325;SDS011;14032;52.510;7.342;2024-02-28T08:04:13;86.65;;;34.78;;
26325;SDS011;14032;52.510;7.342;2024-02-28T08:06:39;90.75;;;36.50;;
26325;SDS011;14032;52.510;7.342;2024-02-28T08:09:05;80.40;;;34.47;;
26325;SDS011;14032;52.510;7.342;2024-02-28T08:11:32;95.32;;;35.88;;
26325;SDS011;14032;52.510;7.342;2024-02-28T08:13:57;98.47;;;39.10;;
26325;SDS011;14032;52.510;7.342;2024-02-28T08:16:23;87.82;;;36.47;;
26325;SDS011;14032;52.510;7.342;2024-02-28T08:18:49;93.68;;;36.22;;
26325;SDS011;14032;52.510;7.342;2024-02-28T08:21:14;88.95;;;36.15;;
26325;SDS011;14032;52.510;7.342;2024-02-28T08:23:40;85.93;;;34.83;;
26325;SDS011;14032;52.510;7.342;2024-02-28T08:26:05;92.68;;;38.20;;
26325;SDS011;14032;52.510;7.342;2024-02-28T08:28:31;86.65;;;36.22;;
26325;SDS011;14032;52.510;7.342;2024-02-28T08:30:58;86.15;;;34.63;;
26325;SDS011;14032;52.510;7.342;2024-02-28T08:33:23;86.35;;;36.13;;
26325;SDS011;14032;52.510;7.342;2024-02-28T08:35:49;86.07;;;36.05;;
26325;SDS011;14032;52.510;7.342;2024-02-28T08:38:16;88.68;;;35.47;;
26325;SDS011;14032;52.510;7.342;2024-02-28T08:40:43;85.93;;;35.28;;
26325;SDS011;14032;52.510;7.342;2024-02-28T08:43:09;84.40;;;35.80;;
26325;SDS011;14032;52.510;7.342;2024-02-28T08:45:34;87.80;;;35.03;;
26325;SDS011;14032;52.510;7.342;2024-02-28T08:48:01;83.38;;;35.45;;
26325;SDS011;14032;52.510;7.342;2024-02-28T08:50:27;83.85;;;34.45;;
26325;SDS011;14032;52.510;7.342;2024-02-28T08:52:54;86.13;;;35.08;;
26325;SDS011;14032;52.510;7.342;2024-02-28T08:55:19;84.35;;;34.38;;
26325;SDS011;14032;52.510;7.342;2024-02-28T08:57:46;85.40;;;34.28;;
26325;SDS011;14032;52.510;7.342;2024-02-28T09:00:13;90.15;;;35.17;;
26325;SDS011;14032;52.510;7.342;2024-02-28T09:02:40;82.57;;;34.90;;
26325;SDS011;14032;52.510;7.342;2024-02-28T09:05:06;80.95;;;34.38;;
26325;SDS011;14032;52.510;7.342;2024-02-28T09:07:34;86.88;;;35.38;;
26325;SDS011;14032;52.510;7.342;2024-02-28T09:10:01;87.28;;;35.70;;
26325;SDS011;14032;52.510;7.342;2024-02-28T09:12:30;85.43;;;36.08;;
26325;SDS011;14032;52.510;7.342;2024-02-28T09:14:55;80.93;;;34.97;;
26325;SDS011;14032;52.510;7.342;2024-02-28T09:17:22;74.55;;;34.13;;
26325;SDS011;14032;52.510;7.342;2024-02-28T09:19:52;79.75;;;34.97;;
26325;SDS011;14032;52.510;7.342;2024-02-28T09:22:17;81.88;;;34.47;;
26325;SDS011;14032;52.510;7.342;2024-02-28T09:24:46;76.25;;;33.50;;
26325;SDS011;14032;52.510;7.342;2024-02-28T09:27:12;72.47;;;32.50;;
26325;SDS011;14032;52.510;7.342;2024-02-28T09:29:37;71.90;;;32.65;;
26325;SDS011;14032;52.510;7.342;2024-02-28T09:32:03;71.85;;;33.10;;
26325;SDS011;14032;52.510;7.342;2024-02-28T09:34:29;78.25;;;32.53;;
26325;SDS011;14032;52.510;7.342;2024-02-28T09:36:55;69.97;;;32.20;;
26325;SDS011;14032;52.510;7.342;2024-02-28T09:39:21;68.32;;;30.42;;
26325;SDS011;14032;52.510;7.342;2024-02-28T09:41:50;68.57;;;33.03;;
26325;SDS011;14032;52.510;7.342;2024-02-28T09:44:16;68.25;;;32.53;;
26325;SDS011;14032;52.510;7.342;2024-02-28T09:46:42;67.57;;;32.30;;
26325;SDS011;14032;52.510;7.342;2024-02-28T09:49:08;64.88;;;31.00;;
26325;SDS011;14032;52.510;7.342;2024-02-28T09:51:35;64.30;;;31.90;;
26325;SDS011;14032;52.510;7.342;2024-02-28T09:54:04;60.33;;;29.48;;
26325;SDS011;14032;52.510;7.342;2024-02-28T09:56:30;61.25;;;29.98;;
26325;SDS011;14032;52.510;7.342;2024-02-28T09:58:57;63.45;;;31.05;;
26325;SDS011;14032;52.510;7.342;2024-02-28T10:01:23;55.63;;;29.70;;
26325;SDS011;14032;52.510;7.342;2024-02-28T10:03:51;58.22;;;29.60;;
26325;SDS011;14032;52.510;7.342;2024-02-28T10:06:19;57.08;;;30.50;;
26325;SDS011;14032;52.510;7.342;2024-02-28T10:08:45;61.35;;;30.52;;
26325;SDS011;14032;52.510;7.342;2024-02-28T10:11:20;67.13;;;33.05;;
26325;SDS011;14032;52.510;7.342;2024-02-28T10:13:48;61.67;;;31.02;;
26325;SDS011;14032;52.510;7.342;2024-02-28T10:16:14;63.05;;;32.00;;
26325;SDS011;14032;52.510;7.342;2024-02-28T10:18:41;57.67;;;30.00;;
26325;SDS011;14032;52.510;7.342;2024-02-28T10:21:08;66.85;;;32.53;;
26325;SDS011;14032;52.510;7.342;2024-02-28T10:23:34;51.22;;;27.77;;
26325;SDS011;14032;52.510;7.342;2024-02-28T10:26:02;51.22;;;28.08;;
26325;SDS011;14032;52.510;7.342;2024-02-28T10:28:28;55.25;;;29.77;;
26325;SDS011;14032;52.510;7.342;2024-02-28T10:30:54;66.30;;;29.23;;
26325;SDS011;14032;52.510;7.342;2024-02-28T10:33:20;51.40;;;27.27;;
26325;SDS011;14032;52.510;7.342;2024-02-28T10:35:46;50.13;;;28.48;;
26325;SDS011;14032;52.510;7.342;2024-02-28T10:38:17;54.88;;;30.95;;
26325;SDS011;14032;52.510;7.342;2024-02-28T10:40:43;55.53;;;31.30;;
26325;SDS011;14032;52.510;7.342;2024-02-28T10:43:09;52.05;;;28.80;;
26325;SDS011;14032;52.510;7.342;2024-02-28T10:45:36;54.75;;;29.77;;
26325;SDS011;14032;52.510;7.342;2024-02-28T10:48:05;52.05;;;30.00;;
26325;SDS011;14032;52.510;7.342;2024-02-28T10:50:32;48.83;;;28.00;;
26325;SDS011;14032;52.510;7.342;2024-02-28T10:53:01;50.97;;;27.50;;
26325;SDS011;14032;52.510;7.342;2024-02-28T10:55:34;52.03;;;31.08;;
26325;SDS011;14032;52.510;7.342;2024-02-28T10:58:08;57.20;;;31.02;;
26325;SDS011;14032;52.510;7.342;2024-02-28T11:00:41;52.53;;;28.83;;
26325;SDS011;14032;52.510;7.342;2024-02-28T11:03:10;47.72;;;28.60;;
26325;SDS011;14032;52.510;7.342;2024-02-28T11:08:09;49.20;;;29.02;;
26325;SDS011;14032;52.510;7.342;2024-02-28T11:10:39;52.10;;;29.38;;
26325;SDS011;14032;52.510;7.342;2024-02-28T11:13:07;50.42;;;30.15;;
26325;SDS011;14032;52.510;7.342;2024-02-28T11:15:35;50.08;;;30.63;;
26325;SDS011;14032;52.510;7.342;2024-02-28T11:18:08;52.50;;;30.23;;
26325;SDS011;14032;52.510;7.342;2024-02-28T11:20:34;54.45;;;30.17;;
26325;SDS011;14032;52.510;7.342;2024-02-28T11:23:00;52.72;;;29.08;;
26325;SDS011;14032;52.510;7.342;2024-02-28T11:25:26;48.97;;;29.40;;
26325;SDS011;14032;52.510;7.342;2024-02-28T11:27:52;46.63;;;28.45;;
26325;SDS011;14032;52.510;7.342;2024-02-28T11:30:17;49.78;;;30.65;;
26325;SDS011;14032;52.510;7.342;2024-02-28T11:32:44;52.33;;;31.15;;
26325;SDS011;14032;52.510;7.342;2024-02-28T11:35:10;51.60;;;29.83;;
26325;SDS011;14032;52.510;7.342;2024-02-28T11:37:40;52.00;;;31.00;;
26325;SDS011;14032;52.510;7.342;2024-02-28T11:40:10;55.85;;;30.55;;
26325;SDS011;14032;52.510;7.342;2024-02-28T11:42:37;50.78;;;29.55;;
26325;SDS011;14032;52.510;7.342;2024-02-28T11:45:04;50.20;;;29.92;;
26325;SDS011;14032;52.510;7.342;2024-02-28T11:47:31;53.33;;;30.60;;
26325;SDS011;14032;52.510;7.342;2024-02-28T11:50:01;48.28;;;29.55;;
26325;SDS011;14032;52.510;7.342;2024-02-28T11:52:31;52.92;;;30.70;;
26325;SDS011;14032;52.510;7.342;2024-02-28T11:54:56;52.45;;;29.77;;
26325;SDS011;14032;52.510;7.342;2024-02-28T11:57:22;49.58;;;30.38;;
26325;SDS011;14032;52.510;7.342;2024-02-28T11:59:54;48.90;;;29.30;;
26325;SDS011;14032;52.510;7.342;2024-02-28T12:02:23;51.08;;;30.73;;
26325;SDS011;14032;52.510;7.342;2024-02-28T12:04:53;48.10;;;29.35;;
26325;SDS011;14032;52.510;7.342;2024-02-28T12:07:20;51.95;;;31.08;;
26325;SDS011;14032;52.510;7.342;2024-02-28T12:09:46;51.92;;;30.75;;
26325;SDS011;14032;52.510;7.342;2024-02-28T12:12:14;54.45;;;30.50;;
26325;SDS011;14032;52.510;7.342;2024-02-28T12:14:39;49.50;;;28.65;;
26325;SDS011;14032;52.510;7.342;2024-02-28T12:17:07;58.35;;;31.70;;
26325;SDS011;14032;52.510;7.342;2024-02-28T12:19:35;53.65;;;30.77;;
26325;SDS011;14032;52.510;7.342;2024-02-28T12:22:00;55.97;;;30.05;;
26325;SDS011;14032;52.510;7.342;2024-02-28T12:24:26;53.95;;;30.08;;
26325;SDS011;14032;52.510;7.342;2024-02-28T12:26:52;49.80;;;28.98;;
26325;SDS011;14032;52.510;7.342;2024-02-28T12:29:17;52.42;;;29.08;;
26325;SDS011;14032;52.510;7.342;2024-02-28T12:31:43;57.78;;;30.42;;
26325;SDS011;14032;52.510;7.342;2024-02-28T12:34:09;47.80;;;28.27;;
26325;SDS011;14032;52.510;7.342;2024-02-28T12:36:34;55.05;;;29.45;;
26325;SDS011;14032;52.510;7.342;2024-02-28T12:39:00;53.42;;;27.67;;
26325;SDS011;14032;52.510;7.342;2024-02-28T12:41:26;58.03;;;30.05;;
26325;SDS011;14032;52.510;7.342;2024-02-28T12:43:53;72.57;;;40.45;;
26325;SDS011;14032;52.510;7.342;2024-02-28T12:46:19;53.25;;;29.98;;
26325;SDS011;14032;52.510;7.342;2024-02-28T12:48:44;50.30;;;28.73;;
26325;SDS011;14032;52.510;7.342;2024-02-28T12:54:01;50.83;;;28.38;;
26325;SDS011;14032;52.510;7.342;2024-02-28T12:56:27;54.40;;;29.30;;
26325;SDS011;14032;52.510;7.342;2024-02-28T12:58:53;52.65;;;30.67;;
26325;SDS011;14032;52.510;7.342;2024-02-28T13:01:18;55.22;;;29.63;;
26325;SDS011;14032;52.510;7.342;2024-02-28T13:03:44;49.85;;;28.58;;
26325;SDS011;14032;52.510;7.342;2024-02-28T13:06:10;51.80;;;29.60;;
26325;SDS011;14032;52.510;7.342;2024-02-28T13:08:35;74.13;;;40.95;;
26325;SDS011;14032;52.510;7.342;2024-02-28T13:11:01;53.92;;;31.08;;
26325;SDS011;14032;52.510;7.342;2024-02-28T13:13:28;47.38;;;28.13;;
26325;SDS011;14032;52.510;7.342;2024-02-28T13:15:54;52.47;;;27.92;;
26325;SDS011;14032;52.510;7.342;2024-02-28T13:18:22;58.35;;;30.38;;
26325;SDS011;14032;52.510;7.342;2024-02-28T13:20:47;51.13;;;28.40;;
26325;SDS011;14032;52.510;7.342;2024-02-28T13:23:13;46.97;;;28.50;;
26325;SDS011;14032;52.510;7.342;2024-02-28T13:25:39;51.28;;;29.38;;
26325;SDS011;14032;52.510;7.342;2024-02-28T13:28:05;54.13;;;29.17;;
26325;SDS011;14032;52.510;7.342;2024-02-28T13:30:32;53.25;;;29.00;;
26325;SDS011;14032;52.510;7.342;2024-02-28T13:33:00;48.60;;;27.35;;
26325;SDS011;14032;52.510;7.342;2024-02-28T13:35:25;45.42;;;26.95;;
26325;SDS011;14032;52.510;7.342;2024-02-28T13:37:51;47.42;;;25.27;;
26325;SDS011;14032;52.510;7.342;2024-02-28T13:40:18;44.67;;;27.00;;
26325;SDS011;14032;52.510;7.342;2024-02-28T13:42:43;46.78;;;25.88;;
26325;SDS011;14032;52.510;7.342;2024-02-28T13:45:10;46.33;;;26.55;;
26325;SDS011;14032;52.510;7.342;2024-02-28T13:47:36;45.65;;;26.17;;
26325;SDS011;14032;52.510;7.342;2024-02-28T13:50:03;48.72;;;29.73;;
26325;SDS011;14032;52.510;7.342;2024-02-28T13:52:29;50.47;;;28.83;;
26325;SDS011;14032;52.510;7.342;2024-02-28T13:54:55;55.03;;;29.35;;
26325;SDS011;14032;52.510;7.342;2024-02-28T13:57:20;47.90;;;28.27;;
26325;SDS011;14032;52.510;7.342;2024-02-28T13:59:47;52.67;;;28.70;;
26325;SDS011;14032;52.510;7.342;2024-02-28T14:02:14;57.50;;;29.10;;
26325;SDS011;14032;52.510;7.342;2024-02-28T14:04:41;51.80;;;29.27;;
26325;SDS011;14032;52.510;7.342;2024-02-28T14:07:08;50.60;;;29.17;;
26325;SDS011;14032;52.510;7.342;2024-02-28T14:09:34;53.28;;;30.23;;
26325;SDS011;14032;52.510;7.342;2024-02-28T14:11:59;52.50;;;29.60;;
26325;SDS011;14032;52.510;7.342;2024-02-28T14:14:25;57.03;;;29.77;;
26325;SDS011;14032;52.510;7.342;2024-02-28T14:16:52;56.40;;;31.60;;
26325;SDS011;14032;52.510;7.342;2024-02-28T14:19:18;58.90;;;32.42;;
26325;SDS011;14032;52.510;7.342;2024-02-28T14:21:43;57.35;;;30.98;;